Time;durP1;ratioP1;P1;durP2;ratioP2;P2;SDS_P1;SDS_P2;PMS_P1;PMS_P2;Temp;Humidity;BMP_temperature;BMP_pressure;BME280_temperature;BME280_humidity;BME280_pressure;Samples;Min_cycle;Max_cycle;Signal;HPM_P1;HPM_P2
2021/08/28 00:01:36;;;;;;;6.60;5.10;;;;;;;14.06;99.22;100334.41;5105841;28;20023;-62
2021/08/28 00:04:01;;;;;;;6.40;4.10;;;;;;;14.02;99.15;100327.66;5087935;28;20035;-62
2021/08/28 00:06:27;;;;;;;8.65;4.72;;;;;;;13.98;99.33;100337.06;5106086;28;20024;-62
2021/08/28 00:08:52;;;;;;;5.97;4.78;;;;;;;13.83;99.50;100310.81;5105953;28;20035;-62
2021/08/28 00:11:18;;;;;;;9.88;4.40;;;;;;;13.92;99.88;100334.13;5105688;28;20019;-62
2021/08/28 00:13:43;;;;;;;7.35;4.45;;;;;;;13.90;99.41;100342.41;5106131;28;20031;-62
2021/08/28 00:16:10;;;;;;;4.75;3.75;;;;;;;13.84;99.48;100348.41;5107395;28;20105;-63
2021/08/28 00:18:36;;;;;;;5.75;4.40;;;;;;;13.86;99.18;100354.47;5107575;28;20043;-62
2021/08/28 00:21:02;;;;;;;7.35;4.90;;;;;;;13.84;98.97;100356.50;5105266;28;20114;-62
2021/08/28 00:23:27;;;;;;;5.18;4.57;;;;;;;13.83;98.91;100370.97;5107835;28;20114;-62
2021/08/28 00:25:53;;;;;;;7.30;4.22;;;;;;;13.75;98.61;100360.13;5107548;28;20042;-62
2021/08/28 00:28:19;;;;;;;7.05;4.00;;;;;;;13.73;98.48;100355.88;5107156;28;20023;-62
2021/08/28 00:30:44;;;;;;;6.22;4.40;;;;;;;13.77;98.92;100361.66;5107351;28;20027;-61
2021/08/28 00:33:14;;;;;;;5.70;4.50;;;;;;;13.77;98.93;100364.34;5107059;28;20042;-61
2021/08/28 00:35:40;;;;;;;5.68;4.10;;;;;;;13.73;98.35;100364.81;5107525;28;20039;-61
2021/08/28 00:38:06;;;;;;;4.80;4.03;;;;;;;13.65;98.20;100351.25;5107394;28;20027;-61
2021/08/28 00:40:33;;;;;;;6.90;4.20;;;;;;;13.69;98.07;100361.59;5107592;28;20061;-61
2021/08/28 00:43:00;;;;;;;5.97;4.22;;;;;;;13.65;97.62;100367.44;5107509;28;20421;-61
2021/08/28 00:45:27;;;;;;;5.75;4.53;;;;;;;13.66;97.89;100374.50;5107332;28;20443;-61
2021/08/28 00:47:58;;;;;;;7.85;4.78;;;;;;;13.63;98.01;100369.41;5107526;28;20055;-61
2021/08/28 00:50:25;;;;;;;6.78;4.50;;;;;;;13.58;98.14;100359.09;5104859;28;20051;-61
2021/08/28 00:52:52;;;;;;;5.00;4.25;;;;;;;13.57;98.11;100364.63;5107116;28;20031;-61
2021/08/28 00:55:17;;;;;;;6.15;4.70;;;;;;;13.54;98.22;100356.84;5106924;28;20556;-61
2021/08/28 00:57:43;;;;;;;6.80;4.75;;;;;;;13.51;98.41;100357.16;5107079;28;20023;-61
2021/08/28 01:00:09;;;;;;;6.22;4.88;;;;;;;13.43;97.81;100349.84;5106807;28;20055;-61
2021/08/28 01:02:40;;;;;;;5.10;4.20;;;;;;;13.44;97.67;100359.63;5106914;28;20019;-60
2021/08/28 01:05:28;;;;;;;7.28;4.90;;;;;;;13.40;97.94;100355.53;5105868;28;20107;-61
2021/08/28 01:08:14;;;;;;;11.20;5.32;;;;;;;13.33;99.08;100349.06;5105911;28;20677;-61
2021/08/28 01:10:46;;;;;;;10.73;5.13;;;;;;;13.34;99.45;100355.28;5105476;28;20433;-61
2021/08/28 01:13:15;;;;;;;11.40;4.90;;;;;;;13.29;99.03;100352.22;5105242;28;20485;-61
2021/08/28 01:15:45;;;;;;;7.00;5.28;;;;;;;13.31;98.99;100363.66;5105213;28;20028;-61
2021/08/28 01:18:13;;;;;;;5.35;4.50;;;;;;;13.27;98.80;100348.81;5105248;28;20019;-61
2021/08/28 01:21:00;;;;;;;5.68;5.07;;;;;;;13.26;98.42;100355.22;5105442;28;20084;-60
2021/08/28 01:23:30;;;;;;;6.68;4.55;;;;;;;13.23;98.75;100347.44;5105211;28;20024;-61
2021/08/28 01:26:00;;;;;;;6.00;4.60;;;;;;;13.20;98.54;100345.03;5106295;28;20098;-61
2021/08/28 01:28:31;;;;;;;9.73;4.32;;;;;;;13.17;99.70;100356.09;5107675;28;20491;-60
2021/08/28 01:30:57;;;;;;;5.25;4.75;;;;;;;13.15;99.62;100341.94;5109257;28;20055;-61
2021/08/28 01:33:23;;;;;;;9.00;4.72;;;;;;;13.12;99.44;100335.00;5106203;28;20054;-61
2021/08/28 01:35:50;;;;;;;6.85;4.72;;;;;;;13.05;99.90;100336.63;5108931;28;20487;-61
2021/08/28 01:38:15;;;;;;;5.40;4.45;;;;;;;13.07;100.00;100333.78;5108509;28;20478;-60
2021/08/28 01:40:42;;;;;;;7.50;4.80;;;;;;;13.07;100.00;100336.47;5108809;28;20073;-61
2021/08/28 01:43:08;;;;;;;6.57;4.72;;;;;;;13.00;100.00;100328.13;5106503;28;20382;-61
2021/08/28 01:45:34;;;;;;;6.80;5.30;;;;;;;12.92;100.00;100324.47;5108710;28;20027;-61
2021/08/28 01:48:00;;;;;;;5.32;4.05;;;;;;;13.02;100.00;100336.06;5109082;28;20075;-61
2021/08/28 01:50:27;;;;;;;5.75;5.13;;;;;;;13.03;100.00;100343.97;5108566;28;20387;-61
2021/08/28 01:52:52;;;;;;;4.93;4.43;;;;;;;13.02;100.00;100336.91;5108871;28;20042;-61
2021/08/28 01:55:18;;;;;;;7.40;5.00;;;;;;;13.01;100.00;100337.91;5109935;28;20019;-61
2021/08/28 01:57:44;;;;;;;5.97;4.22;;;;;;;12.94;100.00;100333.25;5110203;28;21006;-60
2021/08/28 02:00:10;;;;;;;7.38;4.68;;;;;;;13.02;100.00;100336.06;5109766;28;20027;-60
2021/08/28 02:02:36;;;;;;;5.07;4.40;;;;;;;13.00;100.00;100332.69;5110042;28;20479;-61
2021/08/28 02:05:03;;;;;;;5.40;4.18;;;;;;;13.03;100.00;100343.16;5109876;28;20092;-61
2021/08/28 02:07:39;;;;;;;5.55;4.53;;;;;;;13.00;100.00;100335.38;5109996;28;20054;-61
2021/08/28 02:10:27;;;;;;;4.90;4.20;;;;;;;13.03;100.00;100345.84;5109357;28;20066;-61
2021/08/28 02:13:02;;;;;;;5.75;4.85;;;;;;;13.05;100.00;100351.91;5108659;28;20451;-60
2021/08/28 02:15:40;;;;;;;5.07;4.15;;;;;;;13.02;100.00;100341.44;5091246;28;20110;-61
2021/08/28 02:18:19;;;;;;;4.78;4.07;;;;;;;13.01;99.83;100347.84;5109129;28;20042;-61
2021/08/28 02:20:50;;;;;;;5.43;4.47;;;;;;;12.96;100.00;100345.56;5109930;28;20036;-61
2021/08/28 02:23:26;;;;;;;5.32;4.63;;;;;;;12.97;100.00;100343.72;5109381;28;20020;-61
2021/08/28 02:25:55;;;;;;;9.07;5.68;;;;;;;12.91;100.00;100339.78;5109908;28;20062;-61
2021/08/28 02:28:26;;;;;;;5.60;4.93;;;;;;;12.94;100.00;100341.31;5109364;28;20122;-61
2021/08/28 02:30:54;;;;;;;5.97;5.38;;;;;;;12.92;100.00;100343.31;5110001;28;20023;-61
2021/08/28 02:33:20;;;;;;;5.15;4.22;;;;;;;12.93;100.00;100336.94;5108978;28;20366;-61
2021/08/28 02:35:46;;;;;;;7.05;4.53;;;;;;;12.90;100.00;100334.53;5109246;28;20723;-61
2021/08/28 02:38:15;;;;;;;5.65;5.07;;;;;;;12.92;99.92;100346.84;5107725;28;20062;-61
2021/08/28 02:40:42;;;;;;;8.75;5.40;;;;;;;12.88;99.89;100339.22;5109409;28;20032;-61
2021/08/28 02:43:08;;;;;;;5.72;5.10;;;;;;;12.86;99.53;100341.19;5109070;28;20049;-61
2021/08/28 02:45:35;;;;;;;8.65;5.10;;;;;;;12.86;99.98;100344.75;5109102;28;20031;-61
2021/08/28 02:48:02;;;;;;;6.50;5.28;;;;;;;12.82;100.00;100339.81;5108955;28;20051;-61
2021/08/28 02:50:30;;;;;;;9.75;6.07;;;;;;;12.84;100.00;100348.59;5109060;28;20035;-61
2021/08/28 02:52:57;;;;;;;8.60;5.07;;;;;;;12.78;100.00;100336.59;5108572;28;20027;-62
2021/08/28 02:55:24;;;;;;;6.18;5.57;;;;;;;12.73;100.00;100325.41;5108981;28;20035;-62
2021/08/28 02:57:52;;;;;;;7.68;5.57;;;;;;;12.77;100.00;100329.47;5109062;28;20110;-62
2021/08/28 03:00:19;;;;;;;7.95;5.40;;;;;;;12.67;100.00;100304.47;5108686;28;20023;-61
2021/08/28 03:02:44;;;;;;;5.90;5.10;;;;;;;12.79;100.00;100329.34;5108465;28;20024;-61
2021/08/28 03:05:12;;;;;;;10.25;5.32;;;;;;;12.78;100.00;100331.19;5108742;28;20019;-61
2021/08/28 03:07:39;;;;;;;11.27;6.00;;;;;;;12.80;100.00;100336.44;5109099;28;20386;-60
2021/08/28 03:10:07;;;;;;;10.90;5.10;;;;;;;12.73;100.00;100324.53;5108647;28;20106;-59
2021/08/28 03:12:33;;;;;;;6.55;5.22;;;;;;;12.77;100.00;100334.03;5108898;28;20463;-59
2021/08/28 03:14:58;;;;;;;6.55;5.22;;;;;;;12.70;99.72;100325.69;5108776;28;20034;-61
2021/08/28 03:17:25;;;;;;;5.85;5.25;;;;;;;12.72;99.83;100336.31;5108085;28;20494;-61
2021/08/28 03:19:51;;;;;;;7.90;5.00;;;;;;;12.68;100.00;100330.41;5108427;28;20020;-61
2021/08/28 03:22:20;;;;;;;6.00;4.97;;;;;;;12.70;100.00;100338.28;5108493;28;20027;-61
2021/08/28 03:24:48;;;;;;;6.25;5.53;;;;;;;12.69;100.00;100333.91;5108872;28;20034;-61
2021/08/28 03:27:15;;;;;;;9.23;5.32;;;;;;;12.69;100.00;100337.47;5107909;28;20023;-61
2021/08/28 03:29:43;;;;;;;8.00;5.22;;;;;;;12.69;100.00;100334.78;5107752;28;20025;-61
2021/08/28 03:32:09;;;;;;;7.18;5.78;;;;;;;12.70;99.97;100335.59;5107136;28;20574;-61
2021/08/28 03:34:35;;;;;;;7.60;5.28;;;;;;;12.69;100.00;100341.97;5107608;28;20382;-61
2021/08/28 03:37:01;;;;;;;5.88;5.28;;;;;;;12.67;100.00;100339.44;5107568;28;20032;-61
2021/08/28 03:39:27;;;;;;;6.10;5.50;;;;;;;12.59;100.00;100333.09;5106928;28;20024;-61
2021/08/28 03:41:52;;;;;;;8.60;5.43;;;;;;;12.66;100.00;100336.91;5107188;28;20039;-62
2021/08/28 03:44:18;;;;;;;6.45;5.18;;;;;;;12.63;100.00;100329.13;5089129;28;20120;-62
2021/08/28 03:46:46;;;;;;;6.75;5.72;;;;;;;12.70;100.00;100331.06;5088761;28;20026;-62
2021/08/28 03:49:12;;;;;;;7.70;5.65;;;;;;;12.73;100.00;100330.78;5105091;28;20081;-62
2021/08/28 03:51:38;;;;;;;8.50;5.35;;;;;;;12.76;100.00;100332.31;5108005;28;20426;-61
2021/08/28 03:54:03;;;;;;;7.38;5.40;;;;;;;12.78;100.00;100327.66;5072901;28;20116;-62
2021/08/28 03:56:29;;;;;;;8.38;5.32;;;;;;;12.76;100.00;100322.41;5107427;28;20474;-61
2021/08/28 03:58:54;;;;;;;6.90;5.15;;;;;;;12.83;100.00;100334.28;5105587;28;20119;-61
2021/08/28 04:01:20;;;;;;;6.80;5.30;;;;;;;12.75;100.00;100315.34;5106732;28;20490;-61
2021/08/28 04:03:45;;;;;;;7.13;5.40;;;;;;;12.86;100.00;100335.81;5107567;28;20069;-60
2021/08/28 04:06:11;;;;;;;7.25;4.93;;;;;;;12.89;100.00;100336.38;5107172;28;20031;-61
2021/08/28 04:08:36;;;;;;;8.10;5.18;;;;;;;12.90;100.00;100337.25;5105718;28;20504;-61
2021/08/28 04:11:02;;;;;;;6.47;5.38;;;;;;;12.89;99.71;100336.38;5106996;28;20032;-60
2021/08/28 04:13:27;;;;;;;7.22;4.80;;;;;;;12.88;99.80;100333.84;5107065;28;20312;-61
2021/08/28 04:15:54;;;;;;;5.30;4.78;;;;;;;12.92;99.85;100340.59;5106500;28;20114;-60
2021/08/28 04:18:20;;;;;;;6.85;4.47;;;;;;;12.93;100.00;100345.03;5107240;28;20063;-61
2021/08/28 04:20:45;;;;;;;8.30;4.63;;;;;;;12.91;99.93;100337.09;5107875;28;20048;-61
2021/08/28 04:23:11;;;;;;;7.65;5.60;;;;;;;12.99;100.00;100352.50;5107316;28;20272;-61
2021/08/28 04:25:36;;;;;;;6.28;5.32;;;;;;;12.98;99.80;100354.34;5107895;28;20102;-60
2021/08/28 04:28:02;;;;;;;7.63;5.30;;;;;;;12.92;99.92;100349.53;5108022;28;20046;-60
2021/08/28 04:30:28;;;;;;;8.23;5.18;;;;;;;12.98;100.00;100358.88;5107591;28;20031;-60
2021/08/28 04:32:54;;;;;;;6.65;4.95;;;;;;;12.96;100.00;100347.41;5089235;28;20483;-60
2021/08/28 04:35:19;;;;;;;6.45;5.00;;;;;;;12.99;100.00;100353.38;5107231;28;20081;-61
2021/08/28 04:37:45;;;;;;;7.57;5.53;;;;;;;13.00;100.00;100351.53;5107479;28;20040;-60
2021/08/28 04:40:11;;;;;;;8.40;4.80;;;;;;;13.04;100.00;100361.00;5107084;28;20822;-60
2021/08/28 04:42:37;;;;;;;6.65;5.47;;;;;;;13.07;100.00;100360.69;5107872;28;20024;-61
2021/08/28 04:45:03;;;;;;;6.43;5.30;;;;;;;13.12;100.00;100367.31;5107700;28;20038;-61
2021/08/28 04:47:29;;;;;;;8.35;5.88;;;;;;;13.13;100.00;100360.94;5107284;28;20406;-61
2021/08/28 04:49:54;;;;;;;7.70;6.00;;;;;;;13.20;100.00;100370.13;5107461;28;20131;-60
2021/08/28 04:52:20;;;;;;;8.27;6.03;;;;;;;13.27;100.00;100381.13;5107250;28;20022;-61
2021/08/28 04:54:45;;;;;;;7.75;5.55;;;;;;;13.26;100.00;100364.13;5107483;28;20028;-61
2021/08/28 04:57:11;;;;;;;7.50;5.90;;;;;;;13.28;100.00;100355.88;5107265;28;20144;-60
2021/08/28 04:59:36;;;;;;;8.93;6.15;;;;;;;13.37;100.00;100373.84;5108010;28;20020;-61
2021/08/28 05:02:04;;;;;;;6.78;6.07;;;;;;;13.40;100.00;100374.41;5109996;28;20031;-61
2021/08/28 05:04:29;;;;;;;8.45;6.35;;;;;;;13.45;100.00;100373.97;5111198;28;20024;-61
2021/08/28 05:06:55;;;;;;;9.07;6.78;;;;;;;13.50;100.00;100375.19;5111659;28;20027;-61
2021/08/28 05:09:20;;;;;;;9.27;6.38;;;;;;;13.56;100.00;100368.34;5110969;28;20115;-61
2021/08/28 05:11:47;;;;;;;9.48;6.97;;;;;;;13.62;100.00;100370.44;5111473;28;20498;-61
2021/08/28 05:14:13;;;;;;;11.20;6.78;;;;;;;13.65;100.00;100362.88;5111260;28;20452;-60
2021/08/28 05:16:38;;;;;;;10.55;5.97;;;;;;;13.73;100.00;100368.34;5111308;28;20102;-61
2021/08/28 05:19:04;;;;;;;7.30;6.53;;;;;;;13.82;100.00;100361.19;5111609;28;20058;-61
2021/08/28 05:21:30;;;;;;;10.13;5.68;;;;;;;13.87;99.88;100366.97;5092582;28;20042;-61
2021/08/28 05:23:57;;;;;;;13.15;6.82;;;;;;;13.93;99.82;100368.22;5092926;28;20012;-61
2021/08/28 05:26:22;;;;;;;8.82;6.60;;;;;;;14.01;100.00;100352.94;5107547;28;20051;-61
2021/08/28 05:28:48;;;;;;;7.32;6.28;;;;;;;14.13;100.00;100362.50;5104783;28;20475;-61
2021/08/28 05:31:13;;;;;;;8.02;6.38;;;;;;;14.21;100.00;100358.97;5110315;28;20538;-61
2021/08/28 05:33:39;;;;;;;9.75;5.80;;;;;;;14.27;99.66;100356.56;5108117;28;20382;-61
2021/08/28 05:36:04;;;;;;;6.50;5.47;;;;;;;14.32;99.14;100353.38;5110534;28;20518;-61
2021/08/28 05:38:30;;;;;;;6.10;5.45;;;;;;;14.39;99.08;100351.75;5109963;28;20031;-61
2021/08/28 05:40:56;;;;;;;7.60;5.72;;;;;;;14.45;99.60;100346.56;5110365;28;20022;-61
2021/08/28 05:43:22;;;;;;;8.02;5.82;;;;;;;14.53;99.26;100346.63;5109986;28;20039;-61
2021/08/28 05:45:48;;;;;;;7.97;5.38;;;;;;;14.57;98.72;100344.47;5110489;28;20019;-61
2021/08/28 05:48:13;;;;;;;8.20;5.70;;;;;;;14.65;98.68;100352.59;5110103;28;20096;-61
2021/08/28 05:50:38;;;;;;;12.30;6.55;;;;;;;14.59;98.28;100335.19;5110580;28;20027;-61
2021/08/28 05:53:04;;;;;;;8.68;5.70;;;;;;;14.77;97.87;100346.75;5110418;28;20066;-61
2021/08/28 05:55:29;;;;;;;10.57;6.10;;;;;;;14.81;96.49;100358.09;5110233;28;20023;-61
2021/08/28 05:57:55;;;;;;;8.45;5.78;;;;;;;14.82;94.81;100354.38;5110201;28;20042;-61
2021/08/28 06:00:20;;;;;;;10.35;6.28;;;;;;;14.87;94.96;100352.88;5110347;28;20106;-61
2021/08/28 06:02:46;;;;;;;9.25;5.82;;;;;;;14.86;95.15;100337.69;5110200;28;20050;-61
2021/08/28 06:05:12;;;;;;;8.65;5.80;;;;;;;15.02;95.53;100356.66;5109741;28;20438;-61
2021/08/28 06:07:38;;;;;;;7.95;6.72;;;;;;;15.11;95.28;100353.00;5110114;28;20520;-61
2021/08/28 06:10:05;;;;;;;8.93;6.07;;;;;;;15.18;93.46;100356.75;5110343;28;20036;-61
2021/08/28 06:12:32;;;;;;;10.63;6.05;;;;;;;15.23;92.80;100361.66;5109669;28;20399;-61
2021/08/28 06:14:57;;;;;;;7.75;5.68;;;;;;;15.30;91.95;100366.25;5110174;28;20547;-61
2021/08/28 06:17:23;;;;;;;8.18;6.25;;;;;;;15.28;92.03;100362.00;5109545;28;20119;-60
2021/08/28 06:19:48;;;;;;;7.88;5.82;;;;;;;15.44;92.62;100372.91;5109973;28;20031;-60
2021/08/28 06:22:14;;;;;;;11.38;5.85;;;;;;;15.58;93.03;100366.88;5109356;28;20030;-61
2021/08/28 06:24:41;;;;;;;7.38;5.95;;;;;;;15.78;92.84;100371.81;5104253;28;20106;-61
2021/08/28 06:27:07;;;;;;;7.97;5.00;;;;;;;16.04;90.68;100374.38;5107630;28;20062;-61
2021/08/28 06:29:33;;;;;;;6.68;4.72;;;;;;;16.31;87.86;100359.69;5106374;28;20043;-61
2021/08/28 06:31:58;;;;;;;5.97;4.35;;;;;;;16.62;86.99;100347.13;5107960;28;20008;-61
2021/08/28 06:34:24;;;;;;;7.43;4.95;;;;;;;16.91;84.94;100342.81;5104193;28;20114;-61
2021/08/28 06:36:49;;;;;;;4.93;3.60;;;;;;;17.14;83.62;100337.47;5104392;28;20031;-61
2021/08/28 06:39:15;;;;;;;5.70;4.13;;;;;;;17.36;82.76;100344.81;5083158;28;20043;-61
2021/08/28 06:41:40;;;;;;;6.78;4.20;;;;;;;17.54;81.43;100338.13;5106632;28;20509;-61
2021/08/28 06:44:06;;;;;;;5.50;4.03;;;;;;;17.64;79.81;100336.03;5087936;28;20043;-61
2021/08/28 06:46:31;;;;;;;10.95;4.45;;;;;;;17.71;80.24;100331.56;5105858;28;20488;-61
2021/08/28 06:48:57;;;;;;;5.60;4.55;;;;;;;17.77;80.02;100332.75;5106342;28;20837;-61
2021/08/28 06:51:23;;;;;;;5.85;4.25;;;;;;;17.85;79.98;100335.41;5106041;28;20027;-62
2021/08/28 06:53:49;;;;;;;5.95;4.90;;;;;;;18.01;79.83;100327.97;5105115;28;20024;-61
2021/08/28 06:56:16;;;;;;;6.78;4.72;;;;;;;18.19;79.89;100321.38;5106282;28;20024;-62
2021/08/28 06:58:42;;;;;;;8.23;4.60;;;;;;;18.38;77.72;100327.16;5105750;28;20031;-61
2021/08/28 07:01:07;;;;;;;10.68;3.97;;;;;;;18.50;74.90;100322.97;5087808;28;20050;-62
2021/08/28 07:03:33;;;;;;;7.05;4.10;;;;;;;18.56;73.31;100322.22;5105387;28;20016;-62
2021/08/28 07:05:58;;;;;;;6.97;4.63;;;;;;;18.65;73.92;100321.13;5106290;28;20168;-61
2021/08/28 07:08:24;;;;;;;6.72;4.32;;;;;;;18.74;73.80;100306.44;5104373;28;20148;-61
2021/08/28 07:10:49;;;;;;;8.07;5.07;;;;;;;18.90;74.42;100310.81;5105277;28;20122;-61
2021/08/28 07:13:15;;;;;;;6.93;4.13;;;;;;;19.04;72.12;100315.41;5105780;28;20024;-62
2021/08/28 07:15:40;;;;;;;6.15;4.07;;;;;;;19.15;72.79;100313.03;5104654;28;20105;-62
2021/08/28 07:18:08;;;;;;;6.18;3.70;;;;;;;19.26;72.48;100300.88;5106434;28;20035;-62
2021/08/28 07:20:34;;;;;;;4.00;3.60;;;;;;;19.53;71.86;100311.88;5101580;28;20106;-62
2021/08/28 07:22:59;;;;;;;5.72;3.97;;;;;;;19.74;70.94;100309.16;5105851;28;20538;-62
2021/08/28 07:25:25;;;;;;;6.00;4.20;;;;;;;19.92;68.84;100304.13;5105142;28;20043;-62
2021/08/28 07:27:50;;;;;;;4.22;2.90;;;;;;;20.12;67.66;100304.34;5108524;28;20020;-62
2021/08/28 07:30:16;;;;;;;5.55;3.25;;;;;;;20.30;65.64;100301.97;5105613;28;20123;-61
2021/08/28 07:32:41;;;;;;;4.20;2.17;;;;;;;20.54;65.34;100303.41;5102278;28;20067;-62
2021/08/28 07:35:07;;;;;;;3.35;2.38;;;;;;;20.75;62.31;100308.78;5105656;28;20031;-62
2021/08/28 07:37:32;;;;;;;4.57;3.10;;;;;;;20.89;60.63;100291.47;5105197;28;20024;-62
2021/08/28 07:39:58;;;;;;;6.05;2.70;;;;;;;21.16;60.92;100296.91;5105361;28;20119;-63
2021/08/28 07:42:23;;;;;;;6.30;4.03;;;;;;;21.28;59.51;100303.44;5104795;28;20035;-62
2021/08/28 07:44:49;;;;;;;4.78;2.78;;;;;;;21.40;59.40;100312.72;5105988;28;20032;-62
2021/08/28 07:47:14;;;;;;;3.58;3.10;;;;;;;21.54;59.25;100308.97;5106230;28;20031;-62
2021/08/28 07:49:40;;;;;;;3.90;2.60;;;;;;;21.69;59.25;100315.13;5105543;28;20035;-63
2021/08/28 07:52:06;;;;;;;3.17;2.88;;;;;;;21.85;59.19;100305.72;5106851;28;20031;-63
2021/08/28 07:54:31;;;;;;;2.90;2.50;;;;;;;21.99;58.74;100299.25;5104809;28;20035;-63
2021/08/28 07:56:59;;;;;;;3.67;2.10;;;;;;;22.17;58.13;100300.31;5105737;28;20125;-63
2021/08/28 07:59:24;;;;;;;6.38;2.33;;;;;;;22.31;55.69;100298.41;5105751;28;20077;-63
2021/08/28 08:01:52;;;;;;;2.70;2.40;;;;;;;22.44;54.34;100289.38;5105493;28;20514;-63
2021/08/28 08:04:17;;;;;;;5.13;2.10;;;;;;;22.63;54.62;100288.53;5104861;28;20023;-63
2021/08/28 08:06:43;;;;;;;1.98;1.70;;;;;;;22.90;54.51;100284.69;5104051;28;20108;-63
2021/08/28 08:09:08;;;;;;;4.32;2.00;;;;;;;23.12;53.87;100295.13;5105023;28;20022;-63
2021/08/28 08:11:34;;;;;;;2.30;2.08;;;;;;;23.37;53.18;100289.78;5103846;28;20204;-63
2021/08/28 08:13:59;;;;;;;2.25;2.05;;;;;;;23.73;51.04;100293.59;5104953;28;20034;-64
2021/08/28 08:16:25;;;;;;;1.90;1.63;;;;;;;24.25;50.77;100298.72;5104199;28;20035;-62
2021/08/28 08:18:52;;;;;;;3.97;1.90;;;;;;;24.89;48.50;100290.13;5104949;28;20051;-62
2021/08/28 08:21:17;;;;;;;3.75;1.50;;;;;;;25.70;45.29;100288.69;5104581;28;20032;-62
2021/08/28 08:23:43;;;;;;;5.88;2.00;;;;;;;26.52;42.96;100280.44;5086655;28;20118;-62
2021/08/28 08:26:09;;;;;;;3.63;1.50;;;;;;;27.41;40.93;100276.41;5106441;28;20040;-62
2021/08/28 08:28:35;;;;;;;3.25;1.40;;;;;;;27.86;39.88;100275.38;5105854;28;20110;-62
2021/08/28 08:31:00;;;;;;;2.50;1.02;;;;;;;28.02;38.24;100285.59;5106894;28;20074;-62
2021/08/28 08:33:26;;;;;;;4.07;1.65;;;;;;;28.08;38.26;100275.53;5106485;28;20483;-61
2021/08/28 08:35:51;;;;;;;1.58;0.90;;;;;;;28.22;36.43;100280.47;5108329;28;20458;-62
2021/08/28 08:38:17;;;;;;;3.40;1.15;;;;;;;28.09;37.35;100279.94;5109813;28;20060;-62
2021/08/28 08:40:44;;;;;;;1.67;1.33;;;;;;;27.75;38.63;100283.69;5090986;28;20024;-62
2021/08/28 08:43:09;;;;;;;1.55;0.93;;;;;;;27.40;38.91;100285.75;5109571;28;20016;-63
2021/08/28 08:45:35;;;;;;;2.90;1.10;;;;;;;27.13;39.88;100290.94;5109104;28;20080;-62
2021/08/28 08:48:01;;;;;;;1.33;1.05;;;;;;;27.01;40.03;100289.28;5109129;28;20107;-62
2021/08/28 08:50:28;;;;;;;4.50;1.20;;;;;;;26.91;39.35;100283.53;5106668;28;20038;-62
2021/08/28 08:52:59;;;;;;;1.58;1.20;;;;;;;26.60;39.71;100261.88;5107464;28;20128;-63
2021/08/28 08:55:25;;;;;;;1.17;1.08;;;;;;;26.44;40.79;100274.44;5107588;28;20027;-62
2021/08/28 08:57:51;;;;;;;3.55;1.60;;;;;;;26.22;41.49;100276.91;5109383;27;20031;-62
2021/08/28 09:00:17;;;;;;;3.08;1.20;;;;;;;26.03;41.03;100277.25;5106959;27;20023;-62
2021/08/28 09:02:42;;;;;;;3.05;1.10;;;;;;;25.76;41.87;100279.53;5089739;28;20035;-63
2021/08/28 09:05:08;;;;;;;2.30;1.20;;;;;;;25.37;41.96;100243.56;5109631;28;20031;-63
2021/08/28 09:07:33;;;;;;;2.92;1.10;;;;;;;25.30;43.15;100262.81;5104937;28;20031;-63
2021/08/28 09:09:59;;;;;;;1.90;1.00;;;;;;;25.25;43.18;100268.19;5109979;28;20498;-63
2021/08/28 09:12:36;;;;;;;3.45;1.20;;;;;;;25.16;43.00;100282.44;5107971;28;20063;-63
2021/08/28 09:15:02;;;;;;;1.70;0.82;;;;;;;25.11;42.11;100280.38;5107581;28;20043;-63
2021/08/28 09:17:28;;;;;;;1.77;1.00;;;;;;;25.12;42.30;100275.72;5108241;27;20402;-63
2021/08/28 09:19:53;;;;;;;2.53;1.40;;;;;;;25.09;41.66;100274.28;5089565;28;20042;-63
2021/08/28 09:22:23;;;;;;;1.83;1.08;;;;;;;25.09;42.21;100279.78;5107428;28;20055;-63
2021/08/28 09:24:49;;;;;;;2.00;1.30;;;;;;;25.04;41.59;100265.03;5109687;28;20035;-63
2021/08/28 09:27:42;;;;;;;2.00;1.08;;;;;;;25.04;42.35;100265.91;5109016;28;20116;-63
2021/08/28 09:30:23;;;;;;;1.10;1.00;;;;;;;24.96;41.90;100257.13;5109533;28;20028;-63
2021/08/28 09:32:52;;;;;;;2.97;1.13;;;;;;;24.84;41.76;100257.06;5109448;28;20075;-64
2021/08/28 09:35:20;;;;;;;2.00;1.20;;;;;;;24.81;41.26;100273.13;5109531;28;20102;-63
2021/08/28 09:37:57;;;;;;;2.75;1.08;;;;;;;24.64;41.39;100261.94;5109490;28;22010;-63
2021/08/28 09:40:25;;;;;;;1.63;0.70;;;;;;;24.58;42.16;100279.25;5090479;28;20057;-64
2021/08/28 09:43:03;;;;;;;0.93;0.70;;;;;;;24.48;42.23;100270.69;5107740;28;20084;-63
2021/08/28 09:45:29;;;;;;;1.20;0.80;;;;;;;24.32;41.10;100254.81;5106822;28;20043;-63
2021/08/28 09:47:56;;;;;;;2.63;0.70;;;;;;;24.28;41.21;100265.38;5107365;28;20048;-64
2021/08/28 09:50:30;;;;;;;3.38;0.90;;;;;;;24.13;41.78;100262.16;5105807;28;20524;-63
2021/08/28 09:53:00;;;;;;;1.42;0.95;;;;;;;23.99;42.59;100260.56;5107107;28;20096;-64
2021/08/28 09:55:29;;;;;;;1.00;0.80;;;;;;;23.89;42.47;100259.38;5105086;28;20061;-63
2021/08/28 09:57:55;;;;;;;2.45;1.00;;;;;;;23.81;42.19;100259.63;5106027;28;20071;-63
2021/08/28 10:00:20;;;;;;;1.58;0.95;;;;;;;23.72;43.00;100259.06;5106812;28;20096;-64
2021/08/28 10:03:04;;;;;;;1.27;0.70;;;;;;;23.65;43.11;100271.97;5106235;28;20043;-65
2021/08/28 10:05:34;;;;;;;1.85;1.00;;;;;;;23.52;42.90;100257.50;5106834;28;20069;-64
2021/08/28 10:08:01;;;;;;;1.15;0.82;;;;;;;;;;5106665;28;20039;-64
2021/08/28 10:10:28;;;;;;;1.67;1.05;;;;;;;23.42;43.82;100268.94;5105952;28;20102;-64
2021/08/28 10:12:54;;;;;;;2.40;1.13;;;;;;;23.24;43.93;100248.78;5101644;27;20050;-64
2021/08/28 10:15:21;;;;;;;4.88;1.70;;;;;;;23.16;45.74;100238.94;5105313;28;20094;-64
2021/08/28 10:17:48;;;;;;;2.45;1.40;;;;;;;23.22;47.39;100251.75;5107780;28;20067;-64
2021/08/28 10:20:16;;;;;;;2.22;1.70;;;;;;;23.21;49.01;100255.50;5108153;28;20124;-64
2021/08/28 10:22:43;;;;;;;2.58;1.67;;;;;;;23.20;49.49;100253.84;5106355;28;20028;-64
2021/08/28 10:25:12;;;;;;;2.50;2.00;;;;;;;23.18;49.06;100242.25;5108295;28;20030;-63
2021/08/28 10:27:39;;;;;;;2.45;1.83;;;;;;;23.04;49.47;100228.84;5106565;28;20484;-63
2021/08/28 10:30:07;;;;;;;2.67;1.48;;;;;;;23.20;49.35;100253.84;5107840;28;20481;-65
2021/08/28 10:32:34;;;;;;;3.22;1.42;;;;;;;23.16;48.99;100251.75;5107232;28;20030;-66
2021/08/28 10:35:00;;;;;;;2.90;1.40;;;;;;;23.14;49.47;100251.97;5107051;28;20043;-65
2021/08/28 10:37:25;;;;;;;2.67;1.42;;;;;;;23.09;49.57;100243.59;5105172;28;20027;-64
2021/08/28 10:39:52;;;;;;;2.63;1.70;;;;;;;23.04;50.47;100237.91;5107842;27;20513;-63
2021/08/28 10:42:19;;;;;;;5.45;1.88;;;;;;;23.05;50.66;100241.50;5106831;28;20023;-64
2021/08/28 10:44:49;;;;;;;3.83;1.52;;;;;;;23.02;50.72;100233.72;5087442;28;20719;-64
2021/08/28 10:47:20;;;;;;;3.53;2.22;;;;;;;23.04;50.91;100221.50;5105200;28;20028;-63
2021/08/28 10:49:50;;;;;;;4.65;1.73;;;;;;;23.08;50.95;100222.72;5106749;27;20067;-63
2021/08/28 10:52:21;;;;;;;4.85;1.88;;;;;;;23.09;51.16;100224.44;5106826;28;20036;-64
2021/08/28 10:54:53;;;;;;;3.15;1.90;;;;;;;23.14;50.76;100219.13;5088519;28;20039;-64
2021/08/28 10:57:25;;;;;;;3.75;1.90;;;;;;;23.16;51.38;100225.25;5106686;28;20031;-64
2021/08/28 11:00:00;;;;;;;3.95;1.75;;;;;;;23.17;51.41;100221.44;5104030;28;20527;-64
2021/08/28 11:02:55;;;;;;;2.83;1.77;;;;;;;23.20;50.96;100222.88;5105064;28;20592;-64
2021/08/28 11:05:26;;;;;;;3.85;1.60;;;;;;;23.24;50.83;100227.75;5105654;28;20041;-64
2021/08/28 11:07:52;;;;;;;2.17;1.80;;;;;;;23.20;50.50;100214.69;5103005;28;20494;-64
2021/08/28 11:10:20;;;;;;;4.93;1.65;;;;;;;23.22;50.14;100226.25;5105475;28;20038;-63
2021/08/28 11:13:03;;;;;;;2.92;1.90;;;;;;;23.25;49.72;100229.41;5090388;28;20116;-64
2021/08/28 11:15:31;;;;;;;2.03;1.73;;;;;;;23.24;49.75;100227.75;5103281;28;20445;-65
2021/08/28 11:18:01;;;;;;;2.53;1.52;;;;;;;23.23;49.75;100225.22;5106795;28;20070;-65
2021/08/28 11:20:28;;;;;;;3.58;1.98;;;;;;;23.21;49.93;100222.66;5105232;28;20039;-63
2021/08/28 11:22:55;;;;;;;2.28;1.67;;;;;;;23.20;49.97;100218.28;5104047;28;20093;-63